Decoded Metar for MMCN (CIUDAD OBREGON in MEXICO) (IATA:CEN) | Meteo·Mobile Aviation Weather
aviador You're here:

MMCN Decoded Metar

CIUDAD OBREGON in MEXICO
Report Time2018-09-21 16:42:00
UTC Time2018-09-21 17:37:51
Flight Rules vfr VFR
Wind310° at 05 kt
W.Decomp.*RWY 31: 4.9 kt HW 0.9 kt LCW
W.Rank310° ranks 17
Current wind is below 310° avg. (5.6)
Visibility9999 m
Phenomena:N/A
Clouds:Few 030 Hf
Few 200 Hf
Expected CloudBase > 2,800 ft AGL from Temp-Dew spread
CeilingNone
Temp29°C (ISA +14)
Dew Point22°C (66% RH)
Heat Index32.0°C
QNH1012 hPa
Density Alt2,162 ft
Elevation141 ft
Report Wrong Elevation
Raw Report
METAR MMCN 211642Z 31005KT 10SM FEW030 FEW200 29/22 A2988 RMK 8/101
HZY=

Extra information for MMCN:More info

Metar Taf Metar & Taf Last 4 Metars F.Rules Stats Wind Profile Meteogram Temp Stats Airport Information Weather charts Add Link Nearby VenuesMetar ALERT Operation Metar Decoded Social comments